sensor_id;sensor_type;location;lat;lon;timestamp;pressure;altitude;pressure_sealevel;temperature;humidity
76592;BME280;65481;47.600;19.682;2023-12-20T00:02:06;100443.25;;;-0.34;100.00
76592;BME280;65481;47.600;19.682;2023-12-20T00:07:07;100434.50;;;-0.33;100.00
76592;BME280;65481;47.600;19.682;2023-12-20T00:12:08;100420.22;;;-0.37;100.00
76592;BME280;65481;47.600;19.682;2023-12-20T00:17:08;100420.03;;;-0.35;100.00
76592;BME280;65481;47.600;19.682;2023-12-20T00:22:09;100419.06;;;-0.34;100.00
76592;BME280;65481;47.600;19.682;2023-12-20T00:27:09;100412.59;;;-0.38;100.00
76592;BME280;65481;47.600;19.682;2023-12-20T00:32:10;100404.94;;;-0.40;100.00
76592;BME280;65481;47.600;19.682;2023-12-20T00:37:10;100399.41;;;-0.45;100.00
76592;BME280;65481;47.600;19.682;2023-12-20T00:42:11;100382.06;;;-0.44;100.00
76592;BME280;65481;47.600;19.682;2023-12-20T00:47:11;100372.91;;;-0.57;100.00
76592;BME280;65481;47.600;19.682;2023-12-20T00:52:11;100371.00;;;-0.55;100.00
76592;BME280;65481;47.600;19.682;2023-12-20T00:57:12;100365.81;;;-0.55;100.00
76592;BME280;65481;47.600;19.682;2023-12-20T01:02:12;100359.69;;;-0.72;100.00
76592;BME280;65481;47.600;19.682;2023-12-20T01:07:13;100355.63;;;-0.74;100.00
76592;BME280;65481;47.600;19.682;2023-12-20T01:12:13;100352.19;;;-0.57;100.00
76592;BME280;65481;47.600;19.682;2023-12-20T01:17:14;100350.75;;;-0.51;100.00
76592;BME280;65481;47.600;19.682;2023-12-20T01:22:14;100345.56;;;-0.51;100.00
76592;BME280;65481;47.600;19.682;2023-12-20T01:27:16;100333.09;;;-0.56;100.00
76592;BME280;65481;47.600;19.682;2023-12-20T01:32:17;100318.53;;;-0.49;100.00
76592;BME280;65481;47.600;19.682;2023-12-20T01:37:17;100315.34;;;-0.42;100.00
76592;BME280;65481;47.600;19.682;2023-12-20T01:42:18;100296.72;;;-0.38;100.00
76592;BME280;65481;47.600;19.682;2023-12-20T01:47:18;100291.22;;;-0.35;100.00
76592;BME280;65481;47.600;19.682;2023-12-20T01:52:20;100274.72;;;-0.34;100.00
76592;BME280;65481;47.600;19.682;2023-12-20T01:57:21;100272.59;;;-0.30;100.00
76592;BME280;65481;47.600;19.682;2023-12-20T02:02:21;100262.50;;;-0.41;100.00
76592;BME280;65481;47.600;19.682;2023-12-20T02:07:22;100247.94;;;-0.42;100.00
76592;BME280;65481;47.600;19.682;2023-12-20T02:12:23;100238.63;;;-0.53;100.00
76592;BME280;65481;47.600;19.682;2023-12-20T02:17:23;100231.22;;;-0.48;100.00
76592;BME280;65481;47.600;19.682;2023-12-20T02:22:24;100220.69;;;-0.47;100.00
76592;BME280;65481;47.600;19.682;2023-12-20T02:27:24;100217.59;;;-0.50;100.00
76592;BME280;65481;47.600;19.682;2023-12-20T02:32:25;100202.69;;;-0.48;100.00
76592;BME280;65481;47.600;19.682;2023-12-20T02:37:26;100188.38;;;-0.61;100.00
76592;BME280;65481;47.600;19.682;2023-12-20T02:42:26;100185.78;;;-0.61;100.00
76592;BME280;65481;47.600;19.682;2023-12-20T02:47:27;100186.63;;;-0.52;100.00
76592;BME280;65481;47.600;19.682;2023-12-20T02:52:28;100171.06;;;-0.60;100.00
76592;BME280;65481;47.600;19.682;2023-12-20T02:57:29;100166.00;;;-0.70;100.00
76592;BME280;65481;47.600;19.682;2023-12-20T03:02:30;100161.31;;;-0.66;100.00
76592;BME280;65481;47.600;19.682;2023-12-20T03:07:30;100166.97;;;-0.63;100.00
76592;BME280;65481;47.600;19.682;2023-12-20T03:12:30;100165.69;;;-0.67;100.00
76592;BME280;65481;47.600;19.682;2023-12-20T03:17:31;100166.97;;;-0.71;100.00
76592;BME280;65481;47.600;19.682;2023-12-20T03:22:32;100160.66;;;-0.68;100.00
76592;BME280;65481;47.600;19.682;2023-12-20T03:27:32;100160.50;;;-0.67;100.00
76592;BME280;65481;47.600;19.682;2023-12-20T03:32:33;100161.00;;;-0.63;100.00
76592;BME280;65481;47.600;19.682;2023-12-20T03:37:33;100164.25;;;-0.53;100.00
76592;BME280;65481;47.600;19.682;2023-12-20T03:42:34;100161.53;;;-0.51;100.00
76592;BME280;65481;47.600;19.682;2023-12-20T03:47:34;100148.56;;;-0.51;100.00
76592;BME280;65481;47.600;19.682;2023-12-20T03:52:35;100154.13;;;-0.38;100.00
76592;BME280;65481;47.600;19.682;2023-12-20T03:57:35;100149.94;;;-0.31;100.00
76592;BME280;65481;47.600;19.682;2023-12-20T04:02:40;100151.56;;;-0.29;100.00
76592;BME280;65481;47.600;19.682;2023-12-20T04:07:40;100151.38;;;-0.28;100.00
76592;BME280;65481;47.600;19.682;2023-12-20T04:12:41;100153.50;;;-0.32;100.00
76592;BME280;65481;47.600;19.682;2023-12-20T04:17:41;100148.94;;;-0.38;100.00
76592;BME280;65481;47.600;19.682;2023-12-20T04:22:42;100129.63;;;-0.43;100.00
76592;BME280;65481;47.600;19.682;2023-12-20T04:27:42;100136.94;;;-0.39;100.00
76592;BME280;65481;47.600;19.682;2023-12-20T04:32:43;100134.47;;;-0.49;100.00
76592;BME280;65481;47.600;19.682;2023-12-20T04:37:44;100120.25;;;-0.44;100.00
76592;BME280;65481;47.600;19.682;2023-12-20T04:42:44;100111.63;;;-0.45;100.00
76592;BME280;65481;47.600;19.682;2023-12-20T04:47:45;100106.97;;;-0.41;100.00
76592;BME280;65481;47.600;19.682;2023-12-20T04:52:47;100102.09;;;-0.44;100.00
76592;BME280;65481;47.600;19.682;2023-12-20T04:57:47;100097.91;;;-0.37;100.00
76592;BME280;65481;47.600;19.682;2023-12-20T05:02:48;100076.34;;;-0.38;100.00
76592;BME280;65481;47.600;19.682;2023-12-20T05:07:48;100081.03;;;-0.33;100.00
76592;BME280;65481;47.600;19.682;2023-12-20T05:12:49;100058.53;;;-0.33;100.00
76592;BME280;65481;47.600;19.682;2023-12-20T05:17:49;100052.50;;;-0.33;100.00
76592;BME280;65481;47.600;19.682;2023-12-20T05:22:50;100028.03;;;-0.55;100.00
76592;BME280;65481;47.600;19.682;2023-12-20T05:27:50;100035.13;;;-0.74;100.00
76592;BME280;65481;47.600;19.682;2023-12-20T05:32:51;100067.34;;;-0.68;100.00
76592;BME280;65481;47.600;19.682;2023-12-20T05:37:51;100045.66;;;-0.67;100.00
76592;BME280;65481;47.600;19.682;2023-12-20T05:42:52;100023.34;;;-0.60;100.00
76592;BME280;65481;47.600;19.682;2023-12-20T05:47:52;100027.53;;;-0.59;100.00
76592;BME280;65481;47.600;19.682;2023-12-20T05:52:53;100015.03;;;-0.64;100.00
76592;BME280;65481;47.600;19.682;2023-12-20T05:57:54;100008.72;;;-0.69;100.00
76592;BME280;65481;47.600;19.682;2023-12-20T06:02:54;100019.56;;;-0.74;100.00
76592;BME280;65481;47.600;19.682;2023-12-20T06:07:56;100025.28;;;-0.62;100.00
76592;BME280;65481;47.600;19.682;2023-12-20T06:13:01;100038.88;;;-0.52;100.00
76592;BME280;65481;47.600;19.682;2023-12-20T06:18:02;100027.53;;;-0.67;100.00
76592;BME280;65481;47.600;19.682;2023-12-20T06:23:02;100015.53;;;-0.77;100.00
76592;BME280;65481;47.600;19.682;2023-12-20T06:28:03;100020.06;;;-0.79;100.00
76592;BME280;65481;47.600;19.682;2023-12-20T06:33:03;100029.44;;;-0.78;100.00
76592;BME280;65481;47.600;19.682;2023-12-20T06:38:04;100032.53;;;-0.74;100.00
76592;BME280;65481;47.600;19.682;2023-12-20T06:43:04;100030.59;;;-0.64;100.00
76592;BME280;65481;47.600;19.682;2023-12-20T06:48:07;100022.81;;;-0.72;100.00
76592;BME280;65481;47.600;19.682;2023-12-20T06:53:07;100016.19;;;-0.66;100.00
76592;BME280;65481;47.600;19.682;2023-12-20T06:58:08;100024.94;;;-0.59;100.00
76592;BME280;65481;47.600;19.682;2023-12-20T07:03:09;100018.28;;;-0.62;100.00
76592;BME280;65481;47.600;19.682;2023-12-20T07:08:09;100037.59;;;-0.56;100.00
76592;BME280;65481;47.600;19.682;2023-12-20T07:13:11;100043.59;;;-0.55;100.00
76592;BME280;65481;47.600;19.682;2023-12-20T07:18:12;100051.84;;;-0.52;100.00
76592;BME280;65481;47.600;19.682;2023-12-20T07:23:13;100062.88;;;-0.58;100.00
76592;BME280;65481;47.600;19.682;2023-12-20T07:28:13;100063.53;;;-0.56;100.00
76592;BME280;65481;47.600;19.682;2023-12-20T07:33:13;100065.97;;;-0.46;100.00
76592;BME280;65481;47.600;19.682;2023-12-20T07:38:14;100067.25;;;-0.50;100.00
76592;BME280;65481;47.600;19.682;2023-12-20T07:43:14;100064.66;;;-0.50;100.00
76592;BME280;65481;47.600;19.682;2023-12-20T07:48:15;100047.78;;;-0.54;100.00
76592;BME280;65481;47.600;19.682;2023-12-20T07:53:16;100041.34;;;-0.50;100.00
76592;BME280;65481;47.600;19.682;2023-12-20T07:58:16;100046.34;;;-0.57;100.00
76592;BME280;65481;47.600;19.682;2023-12-20T08:03:16;100027.41;;;-0.49;100.00
76592;BME280;65481;47.600;19.682;2023-12-20T08:08:17;100038.06;;;-0.61;100.00
76592;BME280;65481;47.600;19.682;2023-12-20T08:13:17;100045.50;;;-0.57;100.00
76592;BME280;65481;47.600;19.682;2023-12-20T08:18:18;100049.63;;;-0.38;100.00
76592;BME280;65481;47.600;19.682;2023-12-20T08:23:19;100038.09;;;-0.36;100.00
76592;BME280;65481;47.600;19.682;2023-12-20T08:28:20;100033.56;;;-0.42;100.00
76592;BME280;65481;47.600;19.682;2023-12-20T08:33:21;100028.03;;;-0.39;100.00
76592;BME280;65481;47.600;19.682;2023-12-20T08:38:21;100016.88;;;-0.23;100.00
76592;BME280;65481;47.600;19.682;2023-12-20T08:43:22;100020.28;;;-0.14;100.00
76592;BME280;65481;47.600;19.682;2023-12-20T08:48:22;100009.91;;;-0.31;100.00
76592;BME280;65481;47.600;19.682;2023-12-20T08:53:23;100005.84;;;-0.50;100.00
76592;BME280;65481;47.600;19.682;2023-12-20T08:58:23;100003.41;;;-0.51;100.00
76592;BME280;65481;47.600;19.682;2023-12-20T09:03:24;99982.84;;;-0.44;100.00
76592;BME280;65481;47.600;19.682;2023-12-20T09:08:24;99995.63;;;-0.26;100.00
76592;BME280;65481;47.600;19.682;2023-12-20T09:13:25;100002.94;;;-0.38;100.00
76592;BME280;65481;47.600;19.682;2023-12-20T09:18:28;100011.03;;;-0.41;100.00
76592;BME280;65481;47.600;19.682;2023-12-20T09:23:29;99990.44;;;-0.26;100.00
76592;BME280;65481;47.600;19.682;2023-12-20T09:28:29;100010.53;;;-0.53;100.00
76592;BME280;65481;47.600;19.682;2023-12-20T09:33:30;99995.31;;;-0.40;100.00
76592;BME280;65481;47.600;19.682;2023-12-20T09:38:30;99979.91;;;-0.33;100.00
76592;BME280;65481;47.600;19.682;2023-12-20T09:43:31;99974.25;;;-0.37;100.00
76592;BME280;65481;47.600;19.682;2023-12-20T09:48:33;99978.00;;;-0.39;100.00
76592;BME280;65481;47.600;19.682;2023-12-20T09:53:36;99974.56;;;-0.40;100.00
76592;BME280;65481;47.600;19.682;2023-12-20T09:58:38;99980.59;;;-0.23;100.00
76592;BME280;65481;47.600;19.682;2023-12-20T10:03:41;99963.06;;;-0.21;100.00
76592;BME280;65481;47.600;19.682;2023-12-20T10:08:41;99956.41;;;-0.23;100.00
76592;BME280;65481;47.600;19.682;2023-12-20T10:13:42;99930.47;;;-0.07;100.00
76592;BME280;65481;47.600;19.682;2023-12-20T10:18:45;99933.38;;;0.07;100.00
76592;BME280;65481;47.600;19.682;2023-12-20T10:23:45;99955.19;;;0.21;100.00
76592;BME280;65481;47.600;19.682;2023-12-20T10:28:46;99957.00;;;0.20;100.00
76592;BME280;65481;47.600;19.682;2023-12-20T10:33:50;99933.28;;;0.32;100.00
76592;BME280;65481;47.600;19.682;2023-12-20T10:38:52;99915.53;;;0.52;100.00
76592;BME280;65481;47.600;19.682;2023-12-20T10:43:54;99922.94;;;0.63;100.00
76592;BME280;65481;47.600;19.682;2023-12-20T10:48:58;99905.81;;;0.77;100.00
76592;BME280;65481;47.600;19.682;2023-12-20T10:53:59;99907.03;;;0.89;100.00
76592;BME280;65481;47.600;19.682;2023-12-20T10:59:02;99886.38;;;1.19;100.00
76592;BME280;65481;47.600;19.682;2023-12-20T11:04:06;99846.25;;;1.37;100.00
76592;BME280;65481;47.600;19.682;2023-12-20T11:09:24;99810.03;;;2.47;100.00
76592;BME280;65481;47.600;19.682;2023-12-20T11:14:29;99808.59;;;3.10;100.00
76592;BME280;65481;47.600;19.682;2023-12-20T11:19:32;99802.47;;;2.96;100.00
76592;BME280;65481;47.600;19.682;2023-12-20T11:24:33;99797.59;;;2.64;100.00
76592;BME280;65481;47.600;19.682;2023-12-20T11:29:35;99815.69;;;2.72;100.00
76592;BME280;65481;47.600;19.682;2023-12-20T11:34:35;99807.47;;;3.19;100.00
76592;BME280;65481;47.600;19.682;2023-12-20T11:39:36;99813.69;;;3.46;100.00
76592;BME280;65481;47.600;19.682;2023-12-20T11:44:37;99803.19;;;3.75;100.00
76592;BME280;65481;47.600;19.682;2023-12-20T11:49:38;99781.72;;;4.35;100.00
76592;BME280;65481;47.600;19.682;2023-12-20T11:54:38;99784.59;;;4.60;100.00
76592;BME280;65481;47.600;19.682;2023-12-20T11:59:39;99786.00;;;4.69;100.00
76592;BME280;65481;47.600;19.682;2023-12-20T12:04:42;99780.19;;;4.88;100.00
76592;BME280;65481;47.600;19.682;2023-12-20T12:09:43;99769.53;;;5.03;100.00
76592;BME280;65481;47.600;19.682;2023-12-20T12:14:44;99769.13;;;5.06;100.00
76592;BME280;65481;47.600;19.682;2023-12-20T12:19:45;99776.75;;;5.14;100.00
76592;BME280;65481;47.600;19.682;2023-12-20T12:24:47;99781.16;;;5.27;100.00
76592;BME280;65481;47.600;19.682;2023-12-20T12:30:04;99770.47;;;5.42;100.00
76592;BME280;65481;47.600;19.682;2023-12-20T12:35:04;99761.94;;;5.73;100.00
76592;BME280;65481;47.600;19.682;2023-12-20T12:40:14;99767.69;;;5.96;100.00
76592;BME280;65481;47.600;19.682;2023-12-20T12:45:14;99768.03;;;6.13;100.00
76592;BME280;65481;47.600;19.682;2023-12-20T12:50:15;99755.53;;;6.15;100.00
76592;BME280;65481;47.600;19.682;2023-12-20T12:55:16;99753.72;;;5.63;100.00
76592;BME280;65481;47.600;19.682;2023-12-20T13:00:17;99740.88;;;5.41;100.00
76592;BME280;65481;47.600;19.682;2023-12-20T13:05:17;99738.47;;;5.46;100.00
76592;BME280;65481;47.600;19.682;2023-12-20T13:10:18;99731.84;;;5.44;100.00
76592;BME280;65481;47.600;19.682;2023-12-20T13:15:18;99735.50;;;5.29;100.00
76592;BME280;65481;47.600;19.682;2023-12-20T13:20:19;99736.34;;;5.10;100.00
76592;BME280;65481;47.600;19.682;2023-12-20T13:25:20;99732.72;;;4.91;100.00
76592;BME280;65481;47.600;19.682;2023-12-20T13:30:20;99732.13;;;4.75;100.00
76592;BME280;65481;47.600;19.682;2023-12-20T13:35:21;99728.31;;;4.58;100.00
76592;BME280;65481;47.600;19.682;2023-12-20T13:40:21;99726.69;;;4.43;100.00
76592;BME280;65481;47.600;19.682;2023-12-20T13:45:22;99722.47;;;4.35;100.00
76592;BME280;65481;47.600;19.682;2023-12-20T13:50:22;99724.88;;;4.30;100.00
76592;BME280;65481;47.600;19.682;2023-12-20T13:55:23;99728.84;;;4.19;100.00
76592;BME280;65481;47.600;19.682;2023-12-20T14:00:25;99707.72;;;4.01;100.00
76592;BME280;65481;47.600;19.682;2023-12-20T14:05:25;99715.13;;;3.90;100.00
76592;BME280;65481;47.600;19.682;2023-12-20T14:10:27;99716.91;;;3.83;100.00
76592;BME280;65481;47.600;19.682;2023-12-20T14:15:28;99727.72;;;3.73;100.00
76592;BME280;65481;47.600;19.682;2023-12-20T14:20:28;99727.69;;;3.67;100.00
76592;BME280;65481;47.600;19.682;2023-12-20T14:25:29;99722.00;;;3.56;100.00
76592;BME280;65481;47.600;19.682;2023-12-20T14:30:31;99728.81;;;3.51;100.00
76592;BME280;65481;47.600;19.682;2023-12-20T14:35:32;99713.09;;;3.37;100.00
76592;BME280;65481;47.600;19.682;2023-12-20T14:40:33;99724.88;;;3.26;100.00
76592;BME280;65481;47.600;19.682;2023-12-20T14:45:33;99719.28;;;3.29;100.00
76592;BME280;65481;47.600;19.682;2023-12-20T14:50:34;99721.50;;;3.32;100.00
76592;BME280;65481;47.600;19.682;2023-12-20T14:55:36;99728.94;;;3.36;100.00
76592;BME280;65481;47.600;19.682;2023-12-20T15:00:37;99730.91;;;3.27;100.00
76592;BME280;65481;47.600;19.682;2023-12-20T15:05:38;99732.47;;;3.21;100.00
76592;BME280;65481;47.600;19.682;2023-12-20T15:10:39;99731.44;;;3.15;100.00
76592;BME280;65481;47.600;19.682;2023-12-20T15:15:40;99744.03;;;3.12;100.00
76592;BME280;65481;47.600;19.682;2023-12-20T15:20:40;99750.59;;;3.01;100.00
76592;BME280;65481;47.600;19.682;2023-12-20T15:25:42;99754.75;;;2.95;100.00
76592;BME280;65481;47.600;19.682;2023-12-20T15:30:43;99773.78;;;2.96;100.00
76592;BME280;65481;47.600;19.682;2023-12-20T15:35:43;99773.66;;;3.04;100.00
76592;BME280;65481;47.600;19.682;2023-12-20T15:40:44;99782.06;;;2.99;100.00
76592;BME280;65481;47.600;19.682;2023-12-20T15:45:44;99787.41;;;2.91;100.00
76592;BME280;65481;47.600;19.682;2023-12-20T15:50:46;99793.19;;;2.86;100.00
76592;BME280;65481;47.600;19.682;2023-12-20T15:55:47;99803.59;;;2.86;100.00
76592;BME280;65481;47.600;19.682;2023-12-20T16:00:48;99811.06;;;2.90;100.00
76592;BME280;65481;47.600;19.682;2023-12-20T16:05:49;99819.28;;;2.93;100.00
76592;BME280;65481;47.600;19.682;2023-12-20T16:10:49;99828.66;;;2.87;100.00
76592;BME280;65481;47.600;19.682;2023-12-20T16:15:50;99836.44;;;2.81;100.00
76592;BME280;65481;47.600;19.682;2023-12-20T16:20:50;99835.88;;;2.85;100.00
76592;BME280;65481;47.600;19.682;2023-12-20T16:25:51;99842.00;;;2.78;100.00
76592;BME280;65481;47.600;19.682;2023-12-20T16:30:52;99854.34;;;2.69;100.00
76592;BME280;65481;47.600;19.682;2023-12-20T16:35:55;99849.94;;;2.69;100.00
76592;BME280;65481;47.600;19.682;2023-12-20T16:40:57;99857.13;;;2.67;100.00
76592;BME280;65481;47.600;19.682;2023-12-20T16:45:57;99870.91;;;2.61;100.00
76592;BME280;65481;47.600;19.682;2023-12-20T16:50:58;99862.47;;;2.59;100.00
76592;BME280;65481;47.600;19.682;2023-12-20T16:55:58;99856.38;;;2.52;100.00
76592;BME280;65481;47.600;19.682;2023-12-20T17:01:00;99858.69;;;2.47;100.00
76592;BME280;65481;47.600;19.682;2023-12-20T17:06:00;99859.81;;;2.37;100.00
76592;BME280;65481;47.600;19.682;2023-12-20T17:11:01;99863.31;;;2.30;100.00
76592;BME280;65481;47.600;19.682;2023-12-20T17:16:01;99866.22;;;2.20;100.00
76592;BME280;65481;47.600;19.682;2023-12-20T17:21:02;99874.50;;;2.08;100.00
76592;BME280;65481;47.600;19.682;2023-12-20T17:26:02;99894.84;;;2.05;100.00
76592;BME280;65481;47.600;19.682;2023-12-20T17:31:03;99899.59;;;2.01;100.00
76592;BME280;65481;47.600;19.682;2023-12-20T17:36:04;99906.16;;;1.97;100.00
76592;BME280;65481;47.600;19.682;2023-12-20T17:41:05;99903.09;;;1.93;100.00
76592;BME280;65481;47.600;19.682;2023-12-20T17:46:06;99880.50;;;1.79;100.00
76592;BME280;65481;47.600;19.682;2023-12-20T17:51:06;99880.13;;;1.67;100.00
76592;BME280;65481;47.600;19.682;2023-12-20T17:56:07;99891.41;;;1.59;100.00
76592;BME280;65481;47.600;19.682;2023-12-20T18:01:07;99888.47;;;1.62;100.00
76592;BME280;65481;47.600;19.682;2023-12-20T18:06:08;99885.88;;;1.62;100.00
76592;BME280;65481;47.600;19.682;2023-12-20T18:11:10;99890.69;;;1.65;100.00
76592;BME280;65481;47.600;19.682;2023-12-20T18:16:10;99899.03;;;1.61;100.00
76592;BME280;65481;47.600;19.682;2023-12-20T18:21:11;99907.78;;;1.45;100.00
76592;BME280;65481;47.600;19.682;2023-12-20T18:26:12;99912.66;;;1.25;100.00
76592;BME280;65481;47.600;19.682;2023-12-20T18:31:14;99916.31;;;1.15;100.00
76592;BME280;65481;47.600;19.682;2023-12-20T18:36:15;99930.53;;;1.19;100.00
76592;BME280;65481;47.600;19.682;2023-12-20T18:41:16;99928.25;;;1.25;100.00
76592;BME280;65481;47.600;19.682;2023-12-20T18:46:17;99923.97;;;1.32;100.00
76592;BME280;65481;47.600;19.682;2023-12-20T18:51:20;99932.31;;;1.27;100.00
76592;BME280;65481;47.600;19.682;2023-12-20T18:56:21;99939.84;;;1.37;100.00
76592;BME280;65481;47.600;19.682;2023-12-20T19:01:23;99949.56;;;1.43;100.00
76592;BME280;65481;47.600;19.682;2023-12-20T19:06:24;99945.28;;;1.50;100.00
76592;BME280;65481;47.600;19.682;2023-12-20T19:11:25;99941.06;;;1.49;100.00
76592;BME280;65481;47.600;19.682;2023-12-20T19:16:27;99950.19;;;1.45;100.00
76592;BME280;65481;47.600;19.682;2023-12-20T19:21:28;99945.41;;;1.34;100.00
76592;BME280;65481;47.600;19.682;2023-12-20T19:26:30;99945.75;;;1.31;100.00
76592;BME280;65481;47.600;19.682;2023-12-20T19:31:31;99951.63;;;1.25;100.00
76592;BME280;65481;47.600;19.682;2023-12-20T19:36:33;99962.22;;;1.23;100.00
76592;BME280;65481;47.600;19.682;2023-12-20T19:41:34;99962.56;;;1.20;100.00
76592;BME280;65481;47.600;19.682;2023-12-20T19:46:35;99974.72;;;1.19;100.00
76592;BME280;65481;47.600;19.682;2023-12-20T19:51:37;99968.75;;;1.19;100.00
76592;BME280;65481;47.600;19.682;2023-12-20T19:56:40;99961.50;;;1.29;100.00
76592;BME280;65481;47.600;19.682;2023-12-20T20:01:42;99960.66;;;1.37;100.00
76592;BME280;65481;47.600;19.682;2023-12-20T20:06:44;99959.31;;;1.41;100.00
76592;BME280;65481;47.600;19.682;2023-12-20T20:11:45;99958.69;;;1.39;100.00
76592;BME280;65481;47.600;19.682;2023-12-20T20:16:47;99951.59;;;1.33;100.00
76592;BME280;65481;47.600;19.682;2023-12-20T20:21:50;99952.50;;;1.40;100.00
76592;BME280;65481;47.600;19.682;2023-12-20T20:26:52;99966.63;;;1.46;100.00
76592;BME280;65481;47.600;19.682;2023-12-20T20:31:53;99963.50;;;1.50;100.00
76592;BME280;65481;47.600;19.682;2023-12-20T20:36:55;99961.53;;;1.53;100.00
76592;BME280;65481;47.600;19.682;2023-12-20T20:41:56;99954.19;;;1.56;100.00
76592;BME280;65481;47.600;19.682;2023-12-20T20:46:57;99953.47;;;1.62;100.00
76592;BME280;65481;47.600;19.682;2023-12-20T20:51:59;99951.78;;;1.70;100.00
76592;BME280;65481;47.600;19.682;2023-12-20T20:57:01;99957.09;;;1.76;100.00
76592;BME280;65481;47.600;19.682;2023-12-20T21:02:02;99965.19;;;1.81;100.00
76592;BME280;65481;47.600;19.682;2023-12-20T21:07:05;99961.31;;;1.77;100.00
76592;BME280;65481;47.600;19.682;2023-12-20T21:12:06;99954.97;;;1.80;100.00
76592;BME280;65481;47.600;19.682;2023-12-20T21:17:06;99958.44;;;1.87;100.00
76592;BME280;65481;47.600;19.682;2023-12-20T21:22:07;99951.38;;;1.81;100.00
76592;BME280;65481;47.600;19.682;2023-12-20T21:27:07;99961.31;;;1.77;100.00
76592;BME280;65481;47.600;19.682;2023-12-20T21:32:08;99952.16;;;1.81;100.00
76592;BME280;65481;47.600;19.682;2023-12-20T21:37:08;99959.34;;;1.79;100.00
76592;BME280;65481;47.600;19.682;2023-12-20T21:42:09;99947.16;;;1.80;100.00
76592;BME280;65481;47.600;19.682;2023-12-20T21:47:10;99954.13;;;1.79;100.00
76592;BME280;65481;47.600;19.682;2023-12-20T21:52:11;99939.16;;;1.81;100.00
76592;BME280;65481;47.600;19.682;2023-12-20T21:57:12;99936.13;;;1.78;100.00
76592;BME280;65481;47.600;19.682;2023-12-20T22:02:12;99930.00;;;1.71;100.00
76592;BME280;65481;47.600;19.682;2023-12-20T22:07:13;99929.84;;;1.72;100.00
76592;BME280;65481;47.600;19.682;2023-12-20T22:12:14;99924.19;;;1.84;100.00
76592;BME280;65481;47.600;19.682;2023-12-20T22:17:16;99934.44;;;2.00;100.00
76592;BME280;65481;47.600;19.682;2023-12-20T22:22:16;99926.91;;;2.05;100.00
76592;BME280;65481;47.600;19.682;2023-12-20T22:27:17;99922.13;;;2.09;100.00
76592;BME280;65481;47.600;19.682;2023-12-20T22:32:17;99913.63;;;2.15;100.00
76592;BME280;65481;47.600;19.682;2023-12-20T22:37:18;99917.28;;;2.21;100.00
76592;BME280;65481;47.600;19.682;2023-12-20T22:42:18;99924.13;;;2.22;100.00
76592;BME280;65481;47.600;19.682;2023-12-20T22:47:19;99918.34;;;2.26;100.00
76592;BME280;65481;47.600;19.682;2023-12-20T22:52:19;99918.19;;;2.28;100.00
76592;BME280;65481;47.600;19.682;2023-12-20T22:57:21;99929.31;;;2.22;100.00
76592;BME280;65481;47.600;19.682;2023-12-20T23:02:21;99933.25;;;2.18;100.00
76592;BME280;65481;47.600;19.682;2023-12-20T23:07:22;99931.09;;;2.21;100.00
76592;BME280;65481;47.600;19.682;2023-12-20T23:12:22;99920.81;;;2.28;100.00
76592;BME280;65481;47.600;19.682;2023-12-20T23:17:23;99920.81;;;2.28;100.00
76592;BME280;65481;47.600;19.682;2023-12-20T23:22:23;99907.16;;;2.26;100.00
76592;BME280;65481;47.600;19.682;2023-12-20T23:27:24;99907.16;;;2.26;100.00
76592;BME280;65481;47.600;19.682;2023-12-20T23:32:25;99900.97;;;2.27;100.00
76592;BME280;65481;47.600;19.682;2023-12-20T23:37:26;99906.16;;;2.27;100.00
76592;BME280;65481;47.600;19.682;2023-12-20T23:42:26;99904.91;;;2.23;100.00
76592;BME280;65481;47.600;19.682;2023-12-20T23:47:27;99900.69;;;2.22;100.00
76592;BME280;65481;47.600;19.682;2023-12-20T23:52:27;99902.66;;;2.20;100.00
76592;BME280;65481;47.600;19.682;2023-12-20T23:57:28;99903.66;;;2.19;100.00
